createdAt,value
2022-09-05T00:02:23.177Z,1.52
2022-09-05T00:04:55.446Z,1.52
2022-09-05T00:10:11.587Z,1.15
2022-09-05T00:12:41.806Z,1.45
2022-09-05T00:15:20.073Z,1.50
2022-09-05T00:20:01.645Z,1.98
2022-09-05T00:24:31.894Z,1.52
2022-09-05T00:24:36.937Z,1.60
2022-09-05T00:26:50.212Z,3.70
2022-09-05T00:29:46.487Z,3.28
2022-09-05T00:32:18.718Z,3.75
2022-09-05T00:34:56.931Z,3.33
2022-09-05T00:37:32.173Z,3.42
2022-09-05T00:40:21.629Z,3.95
2022-09-05T00:42:54.213Z,3.60
2022-09-05T00:45:27.596Z,4.22
2022-09-05T00:48:00.443Z,3.28
2022-09-05T00:50:32.019Z,4.55
2022-09-05T00:53:07.464Z,3.53
2022-09-05T00:55:39.953Z,3.03
2022-09-05T01:00:47.880Z,3.33
2022-09-05T01:03:29.037Z,3.63
2022-09-05T01:06:17.717Z,3.80
2022-09-05T01:08:52.410Z,3.38
2022-09-05T01:11:29.784Z,2.78
2022-09-05T01:14:02.037Z,3.22
2022-09-05T01:16:36.619Z,3.03
2022-09-05T01:19:15.975Z,3.67
2022-09-05T01:22:06.373Z,4.90
2022-09-05T01:24:57.281Z,4.38
2022-09-05T01:28:49.699Z,4.65
2022-09-05T01:30:35.919Z,3.80
2022-09-05T01:33:09.529Z,3.35
2022-09-05T01:36:01.937Z,3.40
2022-09-05T01:38:39.834Z,2.85
2022-09-05T01:41:21.605Z,3.83
2022-09-05T01:44:12.301Z,3.45
2022-09-05T01:46:44.749Z,2.97
2022-09-05T01:49:25.225Z,3.30
2022-09-05T01:52:12.491Z,3.25
2022-09-05T01:54:47.304Z,3.30
2022-09-05T01:57:21.227Z,3.10
2022-09-05T01:59:54.447Z,2.78
2022-09-05T02:02:27.714Z,3.03
2022-09-05T02:05:16.123Z,2.63
2022-09-05T02:08:12.561Z,3.10
2022-09-05T02:10:45.170Z,3.20
2022-09-05T02:13:28.324Z,2.83
2022-09-05T02:16:03.566Z,2.88
2022-09-05T02:18:44.446Z,2.53
2022-09-05T02:21:20.184Z,3.00
2022-09-05T02:23:54.733Z,3.78
2022-09-05T02:26:27.368Z,3.55
2022-09-05T02:29:01.345Z,3.15
2022-09-05T02:31:36.151Z,3.25
2022-09-05T02:34:09.889Z,3.88
2022-09-05T02:36:43.338Z,3.05
2022-09-05T02:45:00.596Z,3.38
2022-09-05T02:45:08.056Z,3.55
2022-09-05T02:45:26.832Z,3.13
2022-09-05T02:48:15.630Z,3.53
2022-09-05T02:57:28.482Z,3.70
2022-09-05T02:57:38.340Z,3.67
2022-09-05T02:57:39.465Z,3.75
2022-09-05T02:59:36.693Z,3.42
2022-09-05T03:02:25.634Z,3.25
2022-09-05T03:05:04.388Z,3.35
2022-09-05T03:07:48.444Z,3.38
2022-09-05T03:10:28.364Z,3.75
2022-09-05T03:13:38.686Z,4.03
2022-09-05T03:16:29.323Z,3.45
2022-09-05T03:19:32.154Z,3.53
2022-09-05T03:22:22.933Z,3.15
2022-09-05T03:25:16.002Z,4.10
2022-09-05T03:28:05.545Z,3.90
2022-09-05T03:30:39.322Z,3.60
2022-09-05T03:33:24.600Z,3.67
2022-09-05T03:36:11.693Z,3.72
2022-09-05T03:38:59.647Z,3.13
2022-09-05T03:41:40.587Z,3.53
2022-09-05T03:44:20.990Z,3.97
2022-09-05T03:46:57.351Z,3.35
2022-09-05T03:51:11.947Z,3.85
2022-09-05T03:57:19.055Z,3.58
2022-09-05T03:57:26.495Z,4.20
2022-09-05T03:59:03.610Z,3.53
2022-09-05T04:05:00.967Z,4.13
2022-09-05T04:08:06.780Z,3.88
2022-09-05T04:08:24.899Z,3.97
2022-09-05T04:10:17.374Z,4.28
2022-09-05T04:12:50.385Z,3.83
2022-09-05T04:15:29.195Z,4.00
2022-09-05T04:18:04.407Z,4.80
2022-09-05T04:20:44.830Z,5.05
2022-09-05T04:23:17.583Z,5.00
2022-09-05T04:26:07.167Z,4.18
2022-09-05T04:28:53.245Z,4.38
2022-09-05T04:31:27.842Z,5.00
2022-09-05T04:34:04.603Z,4.43
2022-09-05T04:36:35.393Z,4.75
2022-09-05T04:39:09.412Z,4.65
2022-09-05T04:41:42.133Z,4.28
2022-09-05T04:44:13.007Z,4.35
2022-09-05T04:46:48.673Z,4.45
2022-09-05T04:49:24.449Z,4.85
2022-09-05T04:52:00.323Z,4.43
2022-09-05T04:54:32.431Z,4.15
2022-09-05T04:57:14.175Z,3.95
2022-09-05T05:06:05.088Z,3.88
2022-09-05T05:06:14.076Z,3.95
2022-09-05T05:06:15.296Z,4.13
2022-09-05T05:08:38.626Z,3.65
2022-09-05T05:17:53.890Z,3.33
2022-09-05T05:18:09.770Z,3.47
2022-09-05T05:18:14.372Z,3.78
2022-09-05T05:22:28.615Z,3.80
2022-09-05T05:24:58.702Z,3.83
2022-09-05T05:27:35.398Z,3.97
2022-09-05T05:30:06.618Z,3.83
2022-09-05T05:32:45.682Z,4.75
2022-09-05T05:35:16.532Z,3.72
2022-09-05T05:37:48.010Z,4.20
2022-09-05T05:40:21.678Z,3.83
2022-09-05T05:42:52.093Z,4.47
2022-09-05T05:45:22.059Z,4.40
2022-09-05T05:47:52.797Z,3.35
2022-09-05T05:50:28.862Z,3.85
2022-09-05T05:53:06.209Z,3.60
2022-09-05T05:55:52.760Z,3.55
2022-09-05T05:58:44.375Z,3.78
2022-09-05T06:01:31.590Z,4.38
2022-09-05T06:04:30.525Z,3.40
2022-09-05T06:07:10.110Z,3.13
2022-09-05T06:14:51.011Z,3.13
2022-09-05T06:15:01.327Z,3.10
2022-09-05T06:16:20.264Z,3.67
2022-09-05T06:19:00.709Z,2.88
2022-09-05T06:22:08.491Z,2.63
2022-09-05T06:25:16.949Z,2.70
2022-09-05T06:28:05.606Z,3.72
2022-09-05T06:30:48.467Z,2.30
2022-09-05T06:33:38.931Z,2.55
2022-09-05T06:36:15.275Z,2.67
2022-09-05T06:38:54.029Z,2.35
2022-09-05T06:41:27.219Z,2.08
2022-09-05T06:44:15.881Z,2.30
2022-09-05T06:47:22.126Z,2.40
2022-09-05T06:50:26.800Z,2.38
2022-09-05T06:53:24.247Z,3.10
2022-09-05T06:56:26.373Z,3.20
2022-09-05T06:59:18.017Z,2.20
2022-09-05T07:02:00.846Z,2.17
2022-09-05T07:05:37.450Z,2.13
2022-09-05T07:07:27.608Z,2.08
2022-09-05T07:10:00.529Z,2.30
2022-09-05T07:12:33.007Z,2.30
2022-09-05T07:15:08.259Z,2.03
2022-09-05T07:18:09.961Z,3.25
2022-09-05T07:21:17.517Z,2.60
2022-09-05T07:24:06.278Z,2.50
2022-09-05T07:29:24.922Z,2.67
2022-09-05T07:32:00.841Z,3.13
2022-09-05T07:34:32.267Z,3.03
2022-09-05T07:37:14.773Z,3.17
2022-09-05T07:39:47.544Z,3.33
2022-09-05T07:42:19.772Z,2.50
2022-09-05T07:44:57.447Z,2.22
2022-09-05T07:47:29.610Z,3.22
2022-09-05T07:51:31.906Z,2.65
2022-09-05T07:56:49.005Z,1.98
2022-09-05T07:57:17.502Z,2.38
2022-09-05T07:58:41.884Z,2.40
2022-09-05T08:01:14.110Z,2.30
2022-09-05T08:03:44.725Z,2.50
2022-09-05T08:06:27.356Z,3.17
2022-09-05T08:10:07.113Z,1.95
2022-09-05T08:12:09.882Z,2.50
2022-09-05T08:14:55.134Z,2.22
2022-09-05T08:17:30.286Z,2.42
2022-09-05T08:20:09.520Z,3.08
2022-09-05T08:22:52.087Z,2.22
2022-09-05T08:25:36.297Z,1.73
2022-09-05T08:28:33.360Z,2.03
2022-09-05T08:31:14.982Z,2.15
2022-09-05T08:33:47.257Z,1.75
2022-09-05T08:36:21.242Z,2.13
2022-09-05T08:38:52.033Z,1.77
2022-09-05T08:41:43.082Z,1.70
2022-09-05T08:46:42.011Z,2.00
2022-09-05T08:47:13.985Z,1.85
2022-09-05T08:49:52.272Z,1.77
2022-09-05T08:52:30.070Z,1.70
2022-09-05T08:55:07.811Z,2.33
2022-09-05T08:57:59.172Z,1.95
2022-09-05T09:00:36.154Z,2.20
2022-09-05T09:03:13.434Z,2.30
2022-09-05T09:06:13.564Z,2.40
2022-09-05T09:09:06.081Z,1.75
2022-09-05T09:11:38.957Z,2.22
2022-09-05T09:14:31.065Z,1.88
2022-09-05T09:19:36.049Z,2.10
2022-09-05T09:22:11.294Z,2.33
2022-09-05T09:24:44.246Z,1.80
2022-09-05T09:28:30.175Z,1.85
2022-09-05T09:30:19.566Z,1.95
2022-09-05T09:32:50.106Z,2.00
2022-09-05T09:35:23.552Z,2.28
2022-09-05T09:38:05.467Z,1.67
2022-09-05T09:41:02.219Z,1.40
2022-09-05T09:43:40.389Z,1.60
2022-09-05T09:46:25.818Z,2.00
2022-09-05T09:49:22.502Z,1.60
2022-09-05T09:52:20.682Z,1.65
2022-09-05T09:55:01.938Z,1.50
2022-09-05T09:57:50.247Z,2.17
2022-09-05T10:00:21.329Z,1.88
2022-09-05T10:04:30.951Z,1.63
2022-09-05T10:10:45.620Z,1.80
2022-09-05T10:10:48.190Z,2.47
2022-09-05T10:12:21.685Z,1.85
2022-09-05T10:15:13.797Z,2.28
2022-09-05T10:18:03.221Z,2.10
2022-09-05T10:21:17.029Z,2.03
2022-09-05T10:24:10.879Z,1.95
2022-09-05T10:27:07.154Z,2.45
2022-09-05T10:29:53.056Z,1.90
2022-09-05T10:35:08.050Z,2.22
2022-09-05T10:35:37.234Z,2.00
2022-09-05T10:38:15.975Z,2.25
2022-09-05T10:41:21.070Z,1.90
2022-09-05T10:43:45.665Z,2.22
2022-09-05T10:46:49.593Z,2.45
2022-09-05T10:49:22.847Z,2.70
2022-09-05T10:52:18.042Z,2.75
2022-09-05T10:55:15.086Z,2.20
2022-09-05T10:57:54.563Z,2.42
2022-09-05T11:02:19.132Z,2.55
2022-09-05T11:03:43.946Z,2.83
2022-09-05T11:06:16.503Z,3.05
2022-09-05T11:08:59.883Z,3.42
2022-09-05T11:11:34.785Z,2.42
2022-09-05T11:14:26.805Z,2.30
2022-09-05T11:17:00.263Z,2.38
2022-09-05T11:19:32.107Z,2.70
2022-09-05T11:24:48.795Z,2.08
2022-09-05T11:27:26.982Z,2.70
2022-09-05T11:29:59.356Z,3.58
2022-09-05T11:36:11.758Z,3.30
2022-09-05T11:39:52.770Z,2.17
2022-09-05T11:39:57.099Z,2.13
2022-09-05T11:41:51.235Z,2.00
2022-09-05T11:44:27.470Z,2.53
2022-09-05T11:47:29.963Z,3.00
2022-09-05T11:50:13.298Z,2.42
2022-09-05T11:53:09.250Z,2.45
2022-09-05T11:56:04.015Z,2.60
2022-09-05T11:58:48.742Z,2.67
2022-09-05T12:01:42.934Z,2.40
2022-09-05T12:04:27.850Z,1.67
2022-09-05T12:07:30.184Z,1.40
2022-09-05T12:10:07.322Z,2.00
2022-09-05T12:12:41.685Z,2.63
2022-09-05T12:15:22.353Z,3.03
2022-09-05T12:18:00.666Z,2.17
2022-09-05T12:20:37.960Z,2.17
2022-09-05T12:27:38.102Z,2.72
2022-09-05T12:29:34.840Z,1.92
2022-09-05T12:32:36.584Z,2.65
2022-09-05T12:36:07.972Z,2.40
2022-09-05T12:40:55.793Z,2.45
2022-09-05T12:41:40.654Z,2.30
2022-09-05T12:44:40.074Z,2.05
2022-09-05T12:46:40.693Z,3.08
2022-09-05T12:49:12.952Z,2.15
2022-09-05T12:51:49.059Z,2.50
2022-09-05T12:54:33.420Z,2.47
2022-09-05T13:01:27.105Z,2.38
2022-09-05T13:02:57.556Z,3.17
2022-09-05T13:03:28.774Z,2.33
2022-09-05T13:05:52.911Z,1.75
2022-09-05T13:08:27.850Z,2.60
2022-09-05T13:14:49.975Z,2.28
2022-09-05T13:14:56.207Z,2.30
2022-09-05T13:16:41.978Z,2.47
2022-09-05T13:19:18.998Z,1.60
2022-09-05T13:21:52.869Z,1.48
2022-09-05T13:24:30.875Z,1.65
2022-09-05T13:27:11.886Z,1.95
2022-09-05T13:31:01.375Z,1.63
2022-09-05T13:38:00.834Z,1.33
2022-09-05T13:38:10.811Z,2.15
2022-09-05T13:38:47.546Z,1.20
2022-09-05T13:44:00.210Z,1.35
2022-09-05T13:49:32.245Z,1.10
2022-09-05T13:52:11.037Z,1.27
2022-09-05T13:54:47.593Z,1.45
2022-09-05T13:57:32.738Z,1.33
2022-09-05T14:00:27.859Z,2.03
2022-09-05T14:03:38.840Z,2.28
2022-09-05T14:06:46.499Z,1.40
2022-09-05T14:12:23.481Z,1.50
2022-09-05T14:15:11.325Z,1.10
2022-09-05T14:18:20.000Z,1.05
2022-09-05T14:21:12.598Z,1.35
2022-09-05T14:23:45.761Z,0.85
2022-09-05T14:26:17.670Z,1.05
2022-09-05T14:28:52.214Z,0.90
2022-09-05T14:35:49.995Z,1.10
2022-09-05T14:37:43.464Z,0.90
2022-09-05T14:38:00.849Z,1.10
2022-09-05T14:40:46.203Z,1.02
2022-09-05T14:43:34.952Z,1.00
2022-09-05T14:46:13.693Z,1.02
2022-09-05T14:48:50.363Z,1.10
2022-09-05T14:51:43.154Z,1.15
2022-09-05T15:02:38.209Z,1.50
2022-09-05T15:02:41.493Z,1.02
2022-09-05T15:03:15.336Z,1.27
2022-09-05T15:05:50.534Z,1.20
2022-09-05T15:09:58.618Z,1.25
2022-09-05T15:12:24.184Z,1.20
2022-09-05T15:14:13.517Z,0.93
2022-09-05T15:16:45.888Z,1.10
2022-09-05T15:19:40.373Z,1.05
2022-09-05T15:22:32.077Z,1.55
2022-09-05T15:25:16.595Z,0.90
2022-09-05T15:27:49.616Z,1.30
2022-09-05T15:30:22.381Z,0.90
2022-09-05T15:33:12.521Z,1.27
2022-09-05T15:35:43.975Z,1.45
2022-09-05T15:38:23.530Z,1.00
2022-09-05T15:41:07.964Z,1.10
2022-09-05T15:43:42.879Z,1.17
2022-09-05T15:46:14.494Z,1.15
2022-09-05T15:48:44.544Z,1.27
2022-09-05T15:51:20.912Z,1.35
2022-09-05T15:53:52.885Z,1.27
2022-09-05T15:56:25.258Z,1.33
2022-09-05T15:58:58.080Z,1.55
2022-09-05T16:01:45.051Z,2.03
2022-09-05T16:08:17.048Z,2.00
2022-09-05T16:10:33.925Z,1.48
2022-09-05T16:10:37.636Z,1.23
2022-09-05T16:13:02.453Z,1.65
2022-09-05T16:22:04.936Z,1.50
2022-09-05T16:23:19.308Z,2.03
2022-09-05T16:23:31.430Z,1.73
2022-09-05T16:24:10.985Z,1.90
2022-09-05T16:26:50.041Z,2.80
2022-09-05T16:29:26.128Z,2.15
2022-09-05T16:32:08.685Z,2.50
2022-09-05T16:34:39.826Z,2.10
2022-09-05T16:37:12.186Z,1.95
2022-09-05T16:39:47.147Z,2.38
2022-09-05T16:42:19.594Z,2.13
2022-09-05T16:44:56.007Z,2.03
2022-09-05T16:47:36.657Z,2.63
2022-09-05T16:50:16.751Z,2.28
2022-09-05T16:52:57.571Z,2.70
2022-09-05T16:55:37.739Z,2.28
2022-09-05T16:58:15.981Z,2.78
2022-09-05T17:00:52.840Z,2.60
2022-09-05T17:03:34.841Z,1.92
2022-09-05T17:06:14.459Z,1.90
2022-09-05T17:09:00.827Z,1.52
2022-09-05T17:12:00.280Z,1.90
2022-09-05T17:14:36.183Z,2.67
2022-09-05T17:17:20.199Z,1.92
2022-09-05T17:20:14.532Z,1.77
2022-09-05T17:24:45.125Z,1.80
2022-09-05T17:29:19.846Z,2.13
2022-09-05T17:30:32.199Z,2.22
2022-09-05T17:31:58.173Z,2.30
2022-09-05T17:34:43.010Z,1.90
2022-09-05T17:37:20.669Z,1.92
2022-09-05T17:39:55.605Z,2.15
2022-09-05T17:42:38.068Z,2.00
2022-09-05T17:45:14.169Z,2.83
2022-09-05T17:47:48.571Z,1.90
2022-09-05T17:50:22.063Z,2.40
2022-09-05T17:53:25.796Z,1.90
2022-09-05T17:56:13.431Z,1.50
2022-09-05T17:58:59.087Z,1.58
2022-09-05T18:01:32.578Z,1.95
2022-09-05T18:04:17.657Z,1.73
2022-09-05T18:06:59.049Z,1.73
2022-09-05T18:10:14.513Z,1.63
2022-09-05T18:13:31.715Z,4.32
2022-09-05T18:15:58.653Z,2.30
2022-09-05T18:19:28.718Z,3.33
2022-09-05T18:21:25.961Z,2.22
2022-09-05T18:24:01.710Z,2.15
2022-09-05T18:26:40.556Z,2.67
2022-09-05T18:29:18.162Z,2.45
2022-09-05T18:32:02.801Z,2.10
2022-09-05T18:34:48.373Z,1.75
2022-09-05T18:37:36.489Z,1.95
2022-09-05T18:40:07.650Z,1.90
2022-09-05T18:42:39.125Z,1.93
2022-09-05T18:45:16.245Z,1.92
2022-09-05T18:47:51.007Z,2.72
2022-09-05T18:50:28.416Z,2.17
2022-09-05T18:53:09.380Z,2.15
2022-09-05T18:56:12.288Z,1.80
2022-09-05T18:58:34.501Z,1.85
2022-09-05T19:01:21.096Z,1.88
2022-09-05T19:03:52.581Z,1.65
2022-09-05T19:06:35.732Z,2.20
2022-09-05T19:09:08.785Z,1.90
2022-09-05T19:11:52.761Z,1.35
2022-09-05T19:14:49.979Z,1.65
2022-09-05T19:17:23.753Z,2.40
2022-09-05T19:20:31.994Z,2.38
2022-09-05T19:23:11.031Z,1.85
2022-09-05T19:25:46.108Z,1.95
2022-09-05T19:34:36.619Z,2.90
2022-09-05T19:37:03.787Z,2.37
2022-09-05T19:37:15.392Z,2.83
2022-09-05T19:43:10.842Z,3.65
2022-09-05T19:47:33.801Z,2.72
2022-09-05T19:47:44.714Z,2.47
2022-09-05T19:48:26.111Z,4.55
2022-09-05T19:50:58.051Z,4.93
2022-09-05T19:53:27.287Z,9.77
2022-09-05T19:55:56.563Z,4.72
2022-09-05T19:58:26.468Z,6.20
2022-09-05T20:01:03.046Z,5.63
2022-09-05T20:03:38.252Z,4.85
2022-09-05T20:06:29.136Z,5.47
2022-09-05T20:09:16.665Z,5.68
2022-09-05T20:11:50.475Z,3.80
2022-09-05T20:14:21.215Z,3.90
2022-09-05T20:16:50.873Z,3.25
2022-09-05T20:19:29.807Z,3.25
2022-09-05T20:22:10.136Z,5.00
2022-09-05T20:24:52.189Z,3.67
2022-09-05T20:27:27.255Z,4.60
2022-09-05T20:29:58.380Z,3.78
2022-09-05T20:32:38.858Z,3.63
2022-09-05T20:36:57.914Z,3.92
2022-09-05T20:43:15.900Z,4.20
2022-09-05T20:43:19.395Z,3.60
2022-09-05T20:43:53.779Z,3.97
2022-09-05T20:50:44.356Z,4.60
2022-09-05T20:54:16.434Z,4.25
2022-09-05T20:54:18.044Z,3.83
2022-09-05T20:55:39.491Z,4.10
2022-09-05T20:58:09.664Z,4.40
2022-09-05T21:00:39.792Z,6.00
2022-09-05T21:03:09.351Z,4.13
2022-09-05T21:05:40.449Z,4.55
2022-09-05T21:08:17.464Z,4.28
2022-09-05T21:10:54.874Z,3.83
2022-09-05T21:13:27.226Z,4.57
2022-09-05T21:15:56.702Z,4.93
2022-09-05T21:18:33.518Z,5.32
2022-09-05T21:21:25.707Z,4.38
2022-09-05T21:24:16.141Z,4.78
2022-09-05T21:26:50.411Z,4.05
2022-09-05T21:29:32.450Z,3.78
2022-09-05T21:32:10.515Z,3.67
2022-09-05T21:34:45.710Z,3.80
2022-09-05T21:37:16.506Z,5.10
2022-09-05T21:39:59.705Z,8.00
2022-09-05T21:44:49.140Z,7.38
2022-09-05T21:47:48.364Z,4.63
2022-09-05T21:48:15.344Z,4.30
2022-09-05T21:50:47.753Z,4.65
2022-09-05T21:59:27.557Z,3.47
2022-09-05T21:59:30.076Z,2.83
2022-09-05T22:01:55.598Z,3.58
2022-09-05T22:04:40.042Z,2.83
2022-09-05T22:07:26.367Z,4.15
2022-09-05T22:10:09.330Z,3.27
2022-09-05T22:12:42.004Z,2.60
2022-09-05T22:15:27.414Z,2.90
2022-09-05T22:18:16.956Z,2.40
2022-09-05T22:20:53.468Z,2.28
2022-09-05T22:23:40.112Z,2.72
2022-09-05T22:26:10.216Z,2.83
2022-09-05T22:28:48.882Z,2.33
2022-09-05T22:31:21.992Z,2.95
2022-09-05T22:33:51.778Z,3.00
2022-09-05T22:36:22.328Z,2.45
2022-09-05T22:38:52.020Z,2.30
2022-09-05T22:41:30.022Z,2.67
2022-09-05T22:44:01.682Z,2.50
2022-09-05T22:46:35.942Z,2.00
2022-09-05T22:49:07.023Z,2.65
2022-09-05T22:51:38.505Z,2.80
2022-09-05T22:54:08.654Z,2.80
2022-09-05T22:56:40.030Z,3.10
2022-09-05T22:59:14.933Z,2.80
2022-09-05T23:01:53.986Z,2.70
2022-09-05T23:04:24.976Z,3.30
2022-09-05T23:06:55.036Z,3.95
2022-09-05T23:09:24.753Z,3.28
2022-09-05T23:11:54.116Z,2.80
2022-09-05T23:14:23.992Z,3.28
2022-09-05T23:16:55.177Z,3.45
2022-09-05T23:19:25.209Z,3.60
2022-09-05T23:21:56.722Z,4.28
2022-09-05T23:24:26.671Z,3.63
2022-09-05T23:26:56.598Z,3.55
2022-09-05T23:29:26.343Z,3.40
2022-09-05T23:31:57.455Z,4.13
2022-09-05T23:34:33.420Z,3.65
2022-09-05T23:37:03.070Z,3.45
2022-09-05T23:39:32.815Z,3.90
2022-09-05T23:42:02.554Z,6.63
2022-09-05T23:44:32.149Z,5.82
2022-09-05T23:47:03.056Z,4.43
2022-09-05T23:49:32.748Z,4.33
2022-09-05T23:52:02.296Z,5.07
2022-09-05T23:54:31.650Z,3.88
2022-09-05T23:57:00.912Z,5.00
2022-09-05T23:59:30.350Z,4.78
